Time;durP1;ratioP1;P1;durP2;ratioP2;P2;SDS_P1;SDS_P2;PMS_P1;PMS_P2;Temp;Humidity;BMP_temperature;BMP_pressure;BME280_temperature;BME280_humidity;BME280_pressure;Samples;Min_cycle;Max_cycle;Signal;HPM_P1;HPM_P2
2022/11/14 00:00:27;;;;;;;1.75;1.65;;;;;;;2.54;100.00;101426.50;5051369;28;20035;-74
2022/11/14 00:02:53;;;;;;;0.22;0.22;;;;;;;2.51;100.00;101422.47;5052423;28;20035;-73
2022/11/14 00:05:19;;;;;;;1.02;1.00;;;;;;;2.47;100.00;101418.03;5051543;28;20024;-74
2022/11/14 00:07:46;;;;;;;0.40;0.40;;;;;;;2.48;100.00;101422.47;5053461;28;20055;-74
2022/11/14 00:10:12;;;;;;;8.10;7.38;;;;;;;2.49;100.00;101424.09;5050990;28;20082;-74
2022/11/14 00:12:37;;;;;;;9.65;1.65;;;;;;;2.52;100.00;101428.91;5052296;28;20429;-74
2022/11/14 00:15:03;;;;;;;0.45;0.45;;;;;;;2.53;100.00;101422.06;5052304;28;20403;-74
2022/11/14 00:17:28;;;;;;;2.60;2.50;;;;;;;2.53;100.00;101422.06;5052304;28;20416;-74
2022/11/14 00:19:54;;;;;;;1.73;1.65;;;;;;;2.56;100.00;101424.84;5052138;28;20374;-74
2022/11/14 00:22:19;;;;;;;0.85;0.63;;;;;;;2.57;100.00;101422.84;5052259;28;20036;-73
2022/11/14 00:24:44;;;;;;;2.78;2.63;;;;;;;2.64;100.00;101423.59;5054300;28;20059;-74
2022/11/14 00:27:11;;;;;;;4.57;2.55;;;;;;;2.62;100.00;101411.94;5054065;28;20024;-74
2022/11/14 00:29:37;;;;;;;0.82;0.82;;;;;;;2.64;100.00;101415.13;5054115;28;20017;-74
2022/11/14 00:32:03;;;;;;;1.83;1.77;;;;;;;2.68;100.00;101423.59;5036043;28;20067;-74
2022/11/14 00:34:28;;;;;;;1.13;1.13;;;;;;;2.66;100.00;101412.72;5052322;28;20052;-74
2022/11/14 00:36:53;;;;;;;1.38;1.38;;;;;;;2.64;100.00;101420.75;5052103;28;20033;-75
2022/11/14 00:39:19;;;;;;;1.17;1.17;;;;;;;2.64;100.00;101422.78;5050849;28;20021;-75
2022/11/14 00:41:44;;;;;;;0.20;0.20;;;;;;;2.61;100.00;101413.13;5051678;28;20041;-73
2022/11/14 00:44:10;;;;;;;0.82;0.82;;;;;;;2.72;100.00;101422.34;5051963;28;20083;-74
2022/11/14 00:46:35;;;;;;;1.05;1.05;;;;;;;2.63;100.00;101405.06;5052151;28;20036;-75
2022/11/14 00:49:01;;;;;;;3.53;3.22;;;;;;;2.72;100.00;101422.34;5051795;28;20033;-74
2022/11/14 00:51:26;;;;;;;2.13;1.98;;;;;;;2.76;100.00;101414.66;5051970;28;20365;-74
2022/11/14 00:53:52;;;;;;;1.48;1.48;;;;;;;2.79;100.00;101425.13;5051741;28;20075;-74
2022/11/14 00:56:17;;;;;;;2.08;1.95;;;;;;;2.76;100.00;101416.69;5050161;28;20474;-74
2022/11/14 00:58:42;;;;;;;15.00;5.65;;;;;;;2.72;100.00;101408.25;5051682;28;20423;-74
2022/11/14 01:01:08;;;;;;;2.53;2.33;;;;;;;2.76;100.00;101409.03;5051612;28;20446;-74
2022/11/14 01:03:33;;;;;;;3.95;1.70;;;;;;;2.75;100.00;101404.59;5050198;28;20106;-74
2022/11/14 01:06:05;;;;;;;2.08;1.10;;;;;;;2.70;100.00;101401.38;5050273;28;20033;-74
2022/11/14 01:08:31;;;;;;;2.15;1.95;;;;;;;2.68;100.00;101404.66;5052142;28;20029;-73
2022/11/14 01:10:56;;;;;;;2.33;1.55;;;;;;;2.59;100.00;101400.63;5051765;28;20036;-74
2022/11/14 01:13:22;;;;;;;0.70;0.70;;;;;;;2.50;100.00;101394.66;5053752;28;20079;-74
2022/11/14 01:15:48;;;;;;;0.95;0.95;;;;;;;2.53;100.00;101397.47;5053650;28;20029;-74
2022/11/14 01:18:16;;;;;;;1.50;1.45;;;;;;;2.51;100.00;101387.78;5053469;28;20047;-74
2022/11/14 01:20:43;;;;;;;1.90;1.88;;;;;;;2.48;100.00;101389.44;5053352;28;20025;-74
2022/11/14 01:23:10;;;;;;;0.10;0.10;;;;;;;2.53;100.00;101386.19;5052076;28;20021;-74
2022/11/14 01:25:37;;;;;;;5.35;2.88;;;;;;;2.44;100.00;101385.81;5053249;28;20051;-74
2022/11/14 01:28:07;;;;;;;2.38;2.28;;;;;;;2.47;100.00;101375.72;5035446;28;20078;-74
2022/11/14 01:30:32;;;;;;;0.93;0.93;;;;;;;2.41;100.00;101371.72;5053306;28;20036;-74
2022/11/14 01:32:58;;;;;;;0.63;0.63;;;;;;;2.41;100.00;101385.84;5053451;28;20017;-75
2022/11/14 01:35:23;;;;;;;0.35;0.35;;;;;;;2.39;100.00;101377.00;5035425;28;20020;-74
2022/11/14 01:37:49;;;;;;;2.83;2.25;;;;;;;2.43;100.00;101372.94;5053059;28;20072;-74
2022/11/14 01:40:14;;;;;;;2.78;2.58;;;;;;;2.46;100.00;101369.28;5053203;28;20076;-74
2022/11/14 01:42:40;;;;;;;3.28;2.92;;;;;;;2.45;100.00;101366.88;5053327;28;20037;-74
2022/11/14 01:45:42;;;;;;;1.00;1.00;;;;;;;2.50;100.00;101375.72;5053340;28;20086;-74
2022/11/14 01:48:21;;;;;;;1.90;1.90;;;;;;;2.44;100.00;101363.25;5053062;28;20032;-74
2022/11/14 01:50:51;;;;;;;0.30;0.30;;;;;;;2.50;100.00;101367.25;5052084;28;20036;-75
2022/11/14 01:53:16;;;;;;;1.52;1.52;;;;;;;2.56;100.00;101361.97;5053112;28;20032;-75
2022/11/14 01:55:42;;;;;;;6.20;4.68;;;;;;;2.51;100.00;101362.41;5051811;28;20386;-74
2022/11/14 01:58:07;;;;;;;2.05;2.00;;;;;;;2.52;100.00;101350.72;5035437;28;20037;-74
2022/11/14 02:00:33;;;;;;;8.20;6.10;;;;;;;2.54;100.00;101345.44;5038084;28;20021;-74
2022/11/14 02:02:59;;;;;;;5.70;5.32;;;;;;;2.57;100.00;101339.00;5056659;28;20055;-75
2022/11/14 02:05:25;;;;;;;0.28;0.28;;;;;;;2.58;100.00;101339.81;5055678;28;20028;-74
2022/11/14 02:07:50;;;;;;;0.90;0.90;;;;;;;2.58;100.00;101343.44;5055582;28;20033;-75
2022/11/14 02:10:19;;;;;;;7.35;4.63;;;;;;;2.61;100.00;101342.59;5055644;28;20454;-74
2022/11/14 02:12:45;;;;;;;0.52;0.52;;;;;;;2.63;100.00;101340.19;5055364;28;20027;-74
2022/11/14 02:15:10;;;;;;;10.88;5.32;;;;;;;2.66;100.00;101332.91;5055284;28;20025;-74
2022/11/14 02:17:36;;;;;;;2.65;2.47;;;;;;;2.63;100.00;101322.44;5055590;28;20036;-74
2022/11/14 02:20:10;;;;;;;1.77;1.77;;;;;;;2.67;100.00;101328.88;5038608;28;20028;-74
2022/11/14 02:22:38;;;;;;;23.52;6.97;;;;;;;2.69;100.00;101326.41;5056317;28;20029;-74
2022/11/14 02:25:04;;;;;;;2.13;2.05;;;;;;;2.69;100.00;101326.41;5056463;28;20458;-74
2022/11/14 02:27:30;;;;;;;4.53;3.40;;;;;;;2.72;100.00;101332.06;5056197;28;20051;-74
2022/11/14 02:30:09;;;;;;;5.60;2.40;;;;;;;2.72;100.00;101331.25;5053747;28;20028;-75
2022/11/14 02:32:34;;;;;;;1.00;1.00;;;;;;;2.61;100.00;101316.41;5054426;28;20053;-74
2022/11/14 02:34:59;;;;;;;7.40;4.60;;;;;;;2.54;100.00;101311.59;5053213;28;20053;-74
2022/11/14 02:37:25;;;;;;;1.08;1.08;;;;;;;2.41;100.00;101293.56;5054137;28;20029;-74
2022/11/14 02:39:50;;;;;;;1.75;1.63;;;;;;;2.51;100.00;101303.97;5036093;28;20529;-73
2022/11/14 02:42:16;;;;;;;3.13;2.92;;;;;;;2.51;100.00;101297.53;5052943;28;20033;-73
2022/11/14 02:44:41;;;;;;;3.78;3.55;;;;;;;2.56;100.00;101300.72;5054310;28;20251;-74
2022/11/14 02:47:07;;;;;;;5.18;4.80;;;;;;;2.53;100.00;101292.28;5054033;28;20458;-73
2022/11/14 02:49:32;;;;;;;2.38;2.25;;;;;;;2.55;100.00;101299.13;5052820;28;20029;-74
2022/11/14 02:51:57;;;;;;;2.20;2.10;;;;;;;2.55;100.00;101295.47;5036029;28;20033;-74
2022/11/14 02:54:23;;;;;;;3.30;3.15;;;;;;;2.56;100.00;101295.09;5052641;28;20515;-73
2022/11/14 02:56:48;;;;;;;5.28;4.85;;;;;;;2.59;100.00;101293.44;5052589;28;20096;-72
2022/11/14 02:59:14;;;;;;;11.73;3.03;;;;;;;2.64;100.00;101305.09;5054887;28;20032;-74
2022/11/14 03:01:39;;;;;;;2.35;1.85;;;;;;;2.66;100.00;101304.69;5055875;28;20029;-74
2022/11/14 03:04:04;;;;;;;3.63;3.35;;;;;;;2.66;100.00;101304.69;5055845;28;20474;-75
2022/11/14 03:06:30;;;;;;;1.92;1.83;;;;;;;2.63;100.00;101300.69;5056055;28;20032;-74
2022/11/14 03:08:55;;;;;;;2.75;2.60;;;;;;;2.67;100.00;101298.63;5056021;28;20053;-75
2022/11/14 03:11:21;;;;;;;2.95;2.67;;;;;;;2.72;100.00;101297.38;5054462;28;20036;-75
2022/11/14 03:13:46;;;;;;;6.80;4.20;;;;;;;2.76;100.00;101309.44;5054363;28;20031;-75
2022/11/14 03:16:13;;;;;;;3.78;3.55;;;;;;;2.77;100.00;101309.03;5055677;28;20242;-75
2022/11/14 03:18:38;;;;;;;3.22;3.10;;;;;;;2.83;100.00;101317.06;5055870;28;20025;-74
2022/11/14 03:21:09;;;;;;;21.13;3.13;;;;;;;2.79;100.00;101303.78;5055607;28;20039;-74
2022/11/14 03:23:35;;;;;;;1.83;1.77;;;;;;;2.78;100.00;101312.66;5055504;28;20075;-74
2022/11/14 03:26:02;;;;;;;3.63;3.42;;;;;;;2.71;100.00;101302.22;5054164;28;20029;-74
2022/11/14 03:28:27;;;;;;;0.80;0.80;;;;;;;2.81;100.00;101311.81;5055331;28;20060;-74
2022/11/14 03:30:53;;;;;;;17.27;7.18;;;;;;;2.82;100.00;101310.63;5055112;28;20063;-74
2022/11/14 03:33:18;;;;;;;4.35;3.10;;;;;;;2.76;100.00;101306.63;5055183;28;20017;-75
2022/11/14 03:35:44;;;;;;;4.03;3.83;;;;;;;2.76;100.00;101301.78;5054126;28;20025;-74
2022/11/14 03:38:09;;;;;;;1.65;1.65;;;;;;;2.76;100.00;101293.31;5055271;28;20037;-74
2022/11/14 03:40:38;;;;;;;7.60;5.13;;;;;;;2.87;100.00;101304.53;5054940;28;20064;-74
2022/11/14 03:43:04;;;;;;;2.83;2.65;;;;;;;2.94;100.00;101306.47;5054951;28;20466;-74
2022/11/14 03:45:29;;;;;;;1.88;1.33;;;;;;;2.91;100.00;101285.53;5053802;28;20024;-74
2022/11/14 03:47:54;;;;;;;2.65;2.50;;;;;;;3.02;100.00;101288.28;5054973;28;20500;-75
2022/11/14 03:50:20;;;;;;;2.42;2.33;;;;;;;3.06;100.00;101286.22;5055271;28;20037;-74
2022/11/14 03:52:48;;;;;;;4.60;3.58;;;;;;;3.07;100.00;101288.63;5055056;28;20035;-73
2022/11/14 03:55:13;;;;;;;5.35;4.93;;;;;;;3.12;100.00;101299.47;5054759;28;20076;-73
2022/11/14 03:57:38;;;;;;;0.68;0.68;;;;;;;3.05;100.00;101293.88;5053529;28;20536;-74
2022/11/14 04:00:04;;;;;;;0.60;0.60;;;;;;;3.16;100.00;101293.78;5053598;28;20354;-74
2022/11/14 04:02:29;;;;;;;1.23;1.23;;;;;;;3.19;100.00;101288.09;5054536;28;20045;-74
2022/11/14 04:04:55;;;;;;;17.42;6.03;;;;;;;3.23;100.00;101288.06;5054951;28;20029;-74
2022/11/14 04:07:20;;;;;;;5.07;4.47;;;;;;;3.34;100.00;101299.25;5054698;28;20052;-74
2022/11/14 04:09:46;;;;;;;1.10;1.10;;;;;;;3.40;100.00;101309.69;5053332;28;20450;-74
2022/11/14 04:12:11;;;;;;;11.65;7.38;;;;;;;3.40;100.00;101295.56;5054513;28;20057;-73
2022/11/14 04:14:36;;;;;;;0.95;0.95;;;;;;;3.39;100.00;101284.66;5053425;28;20079;-73
2022/11/14 04:17:02;;;;;;;2.85;2.60;;;;;;;3.48;100.00;101284.97;5054374;28;20047;-73
2022/11/14 04:19:27;;;;;;;12.63;6.20;;;;;;;3.50;100.00;101286.16;5053134;28;20029;-74
2022/11/14 04:21:52;;;;;;;2.85;2.63;;;;;;;3.48;100.00;101285.78;5053799;28;20493;-74
2022/11/14 04:24:18;;;;;;;2.65;1.80;;;;;;;3.50;100.00;101285.38;5054500;28;20378;-74
2022/11/14 04:26:43;;;;;;;3.05;2.95;;;;;;;3.58;100.00;101287.69;5054221;28;20082;-74
2022/11/14 04:29:08;;;;;;;0.50;0.50;;;;;;;3.58;100.00;101289.72;5053485;28;20112;-74
2022/11/14 04:31:34;;;;;;;2.00;1.90;;;;;;;3.58;100.00;101284.06;5052922;28;20028;-74
2022/11/14 04:33:59;;;;;;;4.68;4.20;;;;;;;3.58;100.00;101289.72;5054282;28;20479;-74
2022/11/14 04:36:25;;;;;;;4.20;3.80;;;;;;;3.55;100.00;101284.91;5053990;28;20067;-74
2022/11/14 04:38:50;;;;;;;1.38;1.38;;;;;;;3.44;100.00;101282.19;5054020;28;20036;-74
2022/11/14 04:41:15;;;;;;;1.58;1.50;;;;;;;3.43;100.00;101274.13;5053693;28;20071;-74
2022/11/14 04:43:41;;;;;;;6.00;0.95;;;;;;;3.45;100.00;101269.69;5054163;28;20075;-73
2022/11/14 04:46:06;;;;;;;2.03;1.92;;;;;;;3.48;100.00;101273.66;5053988;28;20021;-73
2022/11/14 04:48:31;;;;;;;0.60;0.60;;;;;;;3.43;100.00;101260.00;5053917;28;20028;-74
2022/11/14 04:50:57;;;;;;;1.58;1.58;;;;;;;3.41;100.00;101260.44;5052471;28;20027;-73
2022/11/14 04:53:22;;;;;;;4.78;3.20;;;;;;;3.47;100.00;101260.78;5053836;28;20102;-73
2022/11/14 04:55:47;;;;;;;0.85;0.85;;;;;;;3.50;100.00;101259.94;5053732;28;20028;-73
2022/11/14 04:58:13;;;;;;;1.77;1.75;;;;;;;3.53;100.00;101270.38;5053770;28;20461;-73
2022/11/14 05:00:38;;;;;;;0.43;0.43;;;;;;;3.51;100.00;101270.03;5053690;28;20016;-73
2022/11/14 05:03:03;;;;;;;0.30;0.30;;;;;;;3.47;100.00;101257.97;5053791;28;20051;-73
2022/11/14 05:05:30;;;;;;;1.30;1.30;;;;;;;3.48;100.00;101253.91;5053790;28;20466;-73
2022/11/14 05:07:56;;;;;;;3.35;1.05;;;;;;;3.49;100.00;101255.50;5053446;28;20032;-73
2022/11/14 05:10:21;;;;;;;6.78;1.92;;;;;;;3.49;100.00;101259.13;5052042;28;20024;-74
2022/11/14 05:12:48;;;;;;;2.45;2.35;;;;;;;3.52;100.00;101257.50;5052398;28;20112;-74
2022/11/14 05:15:13;;;;;;;1.42;1.40;;;;;;;3.52;100.00;101249.03;5053745;28;20040;-74
2022/11/14 05:17:39;;;;;;;1.35;1.23;;;;;;;3.46;100.00;101231.75;5052503;28;20458;-74
2022/11/14 05:20:06;;;;;;;2.65;2.40;;;;;;;3.47;100.00;101232.53;5035616;28;20029;-74
2022/11/14 05:22:31;;;;;;;0.20;0.20;;;;;;;3.46;100.00;101230.94;5053781;28;20021;-74
2022/11/14 05:24:58;;;;;;;8.95;3.58;;;;;;;3.54;100.00;101240.91;5046838;28;20041;-73
2022/11/14 05:27:23;;;;;;;5.93;2.55;;;;;;;3.47;100.00;101229.72;5053547;28;20029;-74
2022/11/14 05:29:49;;;;;;;1.75;1.65;;;;;;;3.53;100.00;101228.81;5052120;28;20047;-74
2022/11/14 05:32:15;;;;;;;2.35;2.25;;;;;;;3.60;100.00;101236.41;5053440;28;20162;-74
2022/11/14 05:34:42;;;;;;;2.58;2.38;;;;;;;3.58;100.00;101224.72;5053837;28;20051;-73
2022/11/14 05:37:07;;;;;;;2.58;2.47;;;;;;;3.62;100.00;101242.44;5055929;28;20037;-74
2022/11/14 05:39:33;;;;;;;3.72;2.42;;;;;;;3.60;100.00;101237.22;5056408;28;20035;-74
2022/11/14 05:41:59;;;;;;;1.40;1.35;;;;;;;3.62;100.00;101246.06;5056899;28;20432;-74
2022/11/14 05:44:26;;;;;;;2.30;2.20;;;;;;;3.61;100.00;101249.31;5056389;28;20040;-75
2022/11/14 05:46:53;;;;;;;2.10;1.88;;;;;;;3.61;100.00;101230.34;5056252;28;20024;-72
2022/11/14 05:49:20;;;;;;;7.50;3.50;;;;;;;3.60;100.00;101237.22;5056188;28;20021;-74
2022/11/14 05:51:46;;;;;;;3.38;3.20;;;;;;;3.62;100.00;101251.72;5056266;28;20020;-74
2022/11/14 05:54:14;;;;;;;0.95;0.95;;;;;;;3.65;100.00;101247.25;5057000;28;20374;-73
2022/11/14 05:56:41;;;;;;;11.38;7.90;;;;;;;3.71;100.00;101250.41;5057301;28;20020;-73
2022/11/14 05:59:08;;;;;;;5.00;1.85;;;;;;;3.68;100.00;101257.69;5055832;28;20058;-75
2022/11/14 06:01:35;;;;;;;1.65;1.65;;;;;;;3.75;100.00;101274.59;5056968;28;20024;-74
2022/11/14 06:04:12;;;;;;;1.70;1.60;;;;;;;3.80;100.00;101278.97;5056793;28;20036;-74
2022/11/14 06:06:37;;;;;;;5.30;5.00;;;;;;;3.85;100.00;101268.00;5056826;28;20505;-75
2022/11/14 06:09:03;;;;;;;9.70;4.18;;;;;;;3.69;100.00;101247.19;5056704;28;20065;-74
2022/11/14 06:11:29;;;;;;;1.40;1.40;;;;;;;3.88;100.00;101272.81;5055692;28;20434;-74
2022/11/14 06:13:54;;;;;;;2.90;0.75;;;;;;;3.77;100.00;101271.34;5056851;28;20098;-74
2022/11/14 06:16:22;;;;;;;4.18;2.63;;;;;;;3.76;100.00;101275.38;5056924;28;20462;-75
2022/11/14 06:18:51;;;;;;;0.85;0.85;;;;;;;3.83;100.00;101289.41;5056887;28;20032;-74
2022/11/14 06:21:25;;;;;;;8.63;8.07;;;;;;;3.81;100.00;101284.22;5055944;28;20056;-74
2022/11/14 06:23:52;;;;;;;4.90;1.80;;;;;;;3.72;100.00;101275.44;5054752;28;20032;-75
2022/11/14 06:26:29;;;;;;;1.88;1.80;;;;;;;3.77;100.00;101277.81;5055097;28;20488;-75
2022/11/14 06:28:54;;;;;;;2.10;2.00;;;;;;;3.81;100.00;101272.09;5055610;28;20020;-76
2022/11/14 06:31:41;;;;;;;1.80;1.70;;;;;;;3.81;100.00;101260.78;5055046;28;20029;-76
2022/11/14 06:34:06;;;;;;;2.72;2.58;;;;;;;3.87;100.00;101264.78;5056587;28;20090;-76
2022/11/14 06:36:32;;;;;;;5.88;3.40;;;;;;;3.77;100.00;101260.84;5055357;28;20025;-76
2022/11/14 06:38:58;;;;;;;7.35;6.70;;;;;;;3.75;100.00;101268.94;5054294;28;20462;-76
2022/11/14 06:41:23;;;;;;;2.47;2.38;;;;;;;3.79;100.00;101268.88;5052698;28;20084;-76
2022/11/14 06:43:51;;;;;;;4.13;1.70;;;;;;;3.89;100.00;101257.47;5052766;28;20112;-76
2022/11/14 06:46:19;;;;;;;1.30;1.30;;;;;;;3.90;100.00;101272.41;5051970;28;20493;-76
2022/11/14 06:48:45;;;;;;;0.90;0.90;;;;;;;3.82;100.00;101254.69;5054101;28;20037;-76
2022/11/14 06:51:12;;;;;;;0.95;0.95;;;;;;;3.93;100.00;101265.91;5036009;28;20079;-76
2022/11/14 06:53:38;;;;;;;8.02;3.10;;;;;;;3.98;100.00;101271.09;5035828;28;20017;-76
2022/11/14 06:56:05;;;;;;;4.32;4.00;;;;;;;3.99;100.00;101259.34;5052747;28;20032;-76
2022/11/14 06:58:32;;;;;;;2.58;2.35;;;;;;;3.94;100.00;101245.69;5054632;28;20116;-76
2022/11/14 07:01:06;;;;;;;8.50;4.65;;;;;;;3.96;100.00;101253.75;5055685;28;20029;-76
2022/11/14 07:03:32;;;;;;;3.78;3.55;;;;;;;4.02;100.00;101255.66;5054430;28;20032;-75
2022/11/14 07:05:58;;;;;;;0.80;0.80;;;;;;;4.05;100.00;101257.66;5038583;28;20575;-76
2022/11/14 07:08:24;;;;;;;1.35;1.33;;;;;;;3.97;100.00;101236.34;5054619;28;20044;-75
2022/11/14 07:10:49;;;;;;;0.43;0.43;;;;;;;3.71;100.00;101185.41;5037485;28;20025;-75
2022/11/14 07:13:14;;;;;;;0.55;0.55;;;;;;;4.02;100.00;101227.38;5037528;28;20106;-75
2022/11/14 07:15:48;;;;;;;3.85;3.60;;;;;;;3.87;100.00;101205.41;5055584;28;20033;-76
2022/11/14 07:18:14;;;;;;;2.70;2.47;;;;;;;3.82;100.00;101194.56;5042414;28;20025;-73
2022/11/14 07:20:39;;;;;;;4.43;3.55;;;;;;;3.86;100.00;101210.25;5034765;28;20033;-74
2022/11/14 07:23:04;;;;;;;2.58;2.42;;;;;;;4.19;100.00;101245.34;5035414;28;20033;-74
2022/11/14 07:25:30;;;;;;;2.08;1.90;;;;;;;4.18;100.00;101242.94;5017617;28;20467;-74
2022/11/14 07:27:57;;;;;;;4.47;2.42;;;;;;;4.18;100.00;101246.56;5033811;28;20025;-75
2022/11/14 07:30:22;;;;;;;1.10;1.10;;;;;;;4.26;100.00;101219.78;5035172;28;20079;-78
2022/11/14 07:32:56;;;;;;;3.35;0.85;;;;;;;4.12;100.00;101188.88;5035383;28;20021;-78
2022/11/14 07:35:22;;;;;;;1.02;1.02;;;;;;;4.27;100.00;101221.38;5035269;28;20084;-73
2022/11/14 07:37:48;;;;;;;6.97;6.45;;;;;;;4.34;100.00;101212.78;5034000;28;20462;-72
2022/11/14 07:40:16;;;;;;;3.30;3.13;;;;;;;4.38;100.00;101207.88;5034990;28;20486;-73
2022/11/14 07:42:41;;;;;;;3.13;2.95;;;;;;;4.43;100.00;101207.38;5033834;28;20033;-75
2022/11/14 07:45:07;;;;;;;1.88;1.77;;;;;;;4.55;100.00;101217.31;5042814;28;20033;-72
2022/11/14 07:47:32;;;;;;;0.30;0.30;;;;;;;4.58;100.00;101224.13;5035401;28;20064;-75
2022/11/14 07:49:58;;;;;;;3.67;3.47;;;;;;;4.64;100.00;101219.59;5034594;28;20099;-76
2022/11/14 07:52:23;;;;;;;0.98;0.98;;;;;;;4.71;100.00;101220.25;5034967;28;20038;-75
2022/11/14 07:54:48;;;;;;;2.70;2.53;;;;;;;4.74;100.00;101232.78;5033524;28;20382;-73
2022/11/14 07:57:14;;;;;;;1.25;1.25;;;;;;;4.77;100.00;101224.22;5033105;28;20034;-72
2022/11/14 07:59:39;;;;;;;0.40;0.40;;;;;;;4.83;100.00;101224.53;5034943;28;20490;-73
2022/11/14 08:02:05;;;;;;;3.47;1.63;;;;;;;4.81;100.00;101224.94;5034466;28;20036;-76
2022/11/14 08:04:30;;;;;;;0.43;0.43;;;;;;;4.81;100.00;101221.31;5034500;28;20032;-73
2022/11/14 08:06:56;;;;;;;1.80;1.70;;;;;;;4.83;100.00;101213.19;5034423;28;20029;-74
2022/11/14 08:09:22;;;;;;;8.20;3.60;;;;;;;4.86;100.00;101212.31;5034344;28;20037;-75
2022/11/14 08:11:47;;;;;;;0.40;0.40;;;;;;;4.85;100.00;101217.22;5034632;28;20029;-77
2022/11/14 08:14:13;;;;;;;5.82;4.18;;;;;;;4.88;100.00;101207.84;5034774;28;20028;-72
2022/11/14 08:16:38;;;;;;;1.58;1.58;;;;;;;4.91;100.00;101206.97;5034729;28;20447;-75
2022/11/14 08:19:04;;;;;;;2.60;2.47;;;;;;;5.03;100.00;101199.88;5033309;28;20112;-77
2022/11/14 08:21:29;;;;;;;3.92;3.63;;;;;;;5.02;100.00;101208.81;5033047;28;20021;-75
2022/11/14 08:23:55;;;;;;;0.55;0.55;;;;;;;4.96;100.00;101188.69;5034245;28;20029;-74
2022/11/14 08:26:20;;;;;;;2.58;1.60;;;;;;;4.90;100.00;101187.59;5034259;28;20371;-74
2022/11/14 08:28:46;;;;;;;1.50;1.48;;;;;;;4.80;100.00;101192.22;5034410;28;20084;-78
2022/11/14 08:31:12;;;;;;;3.10;2.60;;;;;;;4.83;100.00;101191.34;5034203;28;20029;-75
2022/11/14 08:33:38;;;;;;;2.38;2.03;;;;;;;4.78;100.00;101179.72;5034099;28;20025;-77
2022/11/14 08:36:05;;;;;;;4.05;1.52;;;;;;;4.88;100.00;101176.69;5034254;28;20036;-74
2022/11/14 08:38:31;;;;;;;3.03;2.38;;;;;;;4.93;100.00;101186.72;5032881;28;20041;-75
2022/11/14 08:40:58;;;;;;;1.02;1.02;;;;;;;4.96;100.00;101180.19;5033858;28;20449;-74
2022/11/14 08:43:23;;;;;;;2.65;2.55;;;;;;;4.97;100.00;101178.16;5034004;28;20091;-74
2022/11/14 08:45:50;;;;;;;3.80;2.85;;;;;;;4.93;100.00;101175.41;5034114;28;20049;-75
2022/11/14 08:48:15;;;;;;;3.03;2.72;;;;;;;4.82;100.00;101161.44;5032804;28;20437;-74
2022/11/14 08:50:41;;;;;;;6.85;2.38;;;;;;;4.98;100.00;101174.09;5033900;28;20037;-77
2022/11/14 08:53:06;;;;;;;2.03;1.92;;;;;;;4.91;100.00;101163.69;5033726;28;20027;-77
2022/11/14 08:55:32;;;;;;;4.25;3.85;;;;;;;5.03;100.00;101179.25;5034000;28;20048;-77
2022/11/14 08:57:57;;;;;;;2.30;2.00;;;;;;;5.10;100.00;101173.47;5034094;28;20074;-74
2022/11/14 09:00:23;;;;;;;1.40;1.40;;;;;;;5.15;100.00;101172.97;5033929;28;20064;-75
2022/11/14 09:02:49;;;;;;;3.10;2.70;;;;;;;5.13;100.00;101158.44;5033673;28;20041;-77
2022/11/14 09:05:14;;;;;;;1.65;1.13;;;;;;;5.27;100.00;101173.13;5032734;28;20084;-74
2022/11/14 09:07:40;;;;;;;1.10;1.10;;;;;;;5.29;100.00;101184.81;5034726;28;20033;-80
2022/11/14 09:10:06;;;;;;;0.20;0.20;;;;;;;5.28;100.00;101171.06;5036559;28;20060;-80
2022/11/14 09:12:31;;;;;;;1.95;1.85;;;;;;;5.41;100.00;101171.22;5037039;28;20036;-78
2022/11/14 09:14:58;;;;;;;2.88;2.78;;;;;;;5.50;100.00;101163.72;5033702;28;20025;-73
2022/11/14 09:17:23;;;;;;;0.63;0.63;;;;;;;5.61;100.00;101161.47;5038727;28;20041;-73
2022/11/14 09:19:50;;;;;;;1.15;1.15;;;;;;;5.68;100.00;101161.31;5053360;28;20040;-75
2022/11/14 09:22:19;;;;;;;3.50;3.20;;;;;;;5.74;100.00;101162.41;5053636;28;20029;-75
2022/11/14 09:24:46;;;;;;;2.78;2.58;;;;;;;5.66;100.00;101148.81;5053914;28;20106;-73
2022/11/14 09:27:12;;;;;;;2.47;2.38;;;;;;;5.64;100.00;101151.31;5051952;28;20108;-77
2022/11/14 09:29:37;;;;;;;0.68;0.68;;;;;;;5.57;100.00;101137.28;5052693;28;20037;-75
2022/11/14 09:32:03;;;;;;;1.63;1.52;;;;;;;5.53;100.00;101137.34;5053992;28;20124;-75
2022/11/14 09:34:28;;;;;;;1.33;0.98;;;;;;;5.39;100.00;101126.31;5054106;28;20381;-77
2022/11/14 09:36:53;;;;;;;3.75;3.22;;;;;;;5.48;100.00;101125.72;5052041;28;20032;-75
2022/11/14 09:39:19;;;;;;;3.15;3.03;;;;;;;5.62;100.00;101131.88;5052244;28;20033;-75
2022/11/14 09:42:12;;;;;;;1.00;1.00;;;;;;;5.67;100.00;101139.06;5052967;28;20085;-74
2022/11/14 09:44:41;;;;;;;1.00;0.75;;;;;;;5.73;100.00;101140.16;5052157;28;20025;-74
2022/11/14 09:47:16;;;;;;;4.07;3.78;;;;;;;5.80;100.00;101134.31;5051617;28;20119;-77
2022/11/14 09:49:46;;;;;;;0.60;0.60;;;;;;;5.76;100.00;101154.25;5051723;28;20116;-75
2022/11/14 09:52:12;;;;;;;0.60;0.60;;;;;;;5.78;100.00;101151.78;5035524;28;20079;-78
2022/11/14 09:55:24;;;;;;;0.70;0.70;;;;;;;5.88;100.00;101149.94;5053114;28;20117;-77
2022/11/14 09:57:50;;;;;;;1.15;1.15;;;;;;;5.98;100.00;101148.09;5050411;28;20057;-76
2022/11/14 10:00:20;;;;;;;7.43;4.35;;;;;;;6.07;100.00;101148.28;5053211;28;20037;-74
2022/11/14 10:02:55;;;;;;;1.02;1.02;;;;;;;6.22;100.00;101152.38;5053353;28;20029;-74
2022/11/14 10:05:26;;;;;;;3.25;3.03;;;;;;;6.28;100.00;101141.31;5052720;28;20035;-74
2022/11/14 10:08:08;;;;;;;1.97;1.87;;;;;;;6.25;100.00;101118.25;5052049;28;20440;-73
2022/11/14 10:10:37;;;;;;;;;;;;;;;6.33;100.00;101116.06;5052267;28;20299;-77
2022/11/14 10:13:06;;;;;;;1.98;1.90;;;;;;;6.36;100.00;101118.00;5051826;28;19913;-74
2022/11/14 10:16:11;;;;;;;2.42;2.30;;;;;;;6.50;100.00;101123.31;5051839;28;20121;-75
2022/11/14 10:18:49;;;;;;;1.45;1.45;;;;;;;6.66;100.00;101125.34;5034896;28;20033;-77
2022/11/14 10:21:23;;;;;;;3.67;3.45;;;;;;;6.75;100.00;101116.19;5054436;28;20033;-77
2022/11/14 10:24:17;;;;;;;2.15;2.05;;;;;;;6.77;100.00;101103.16;5055396;28;20564;-77
2022/11/14 10:27:06;;;;;;;1.48;1.42;;;;;;;6.90;100.00;101108.88;5056977;28;20474;-77
2022/11/14 10:29:50;;;;;;;1.45;1.45;;;;;;;7.00;100.00;101108.59;5056509;28;20031;-75
2022/11/14 10:32:46;;;;;;;0.93;0.93;;;;;;;7.06;100.00;101100.31;5056467;28;20036;-73
2022/11/14 10:35:16;;;;;;;1.92;1.83;;;;;;;7.00;100.00;101097.22;5055044;28;20078;-76
2022/11/14 10:38:03;;;;;;;5.82;3.85;;;;;;;7.04;100.00;101094.25;5055101;28;20512;-75
2022/11/14 10:40:33;;;;;;;4.47;4.05;;;;;;;7.08;100.00;101092.13;5038159;28;20136;-78
2022/11/14 10:43:07;;;;;;;4.57;4.22;;;;;;;7.12;100.00;101098.53;5055499;28;20036;-74
2022/11/14 10:45:37;;;;;;;1.75;1.65;;;;;;;7.03;100.00;101082.09;5037349;28;20014;-74
2022/11/14 10:48:08;;;;;;;9.77;2.53;;;;;;;7.23;100.00;101098.19;5053947;28;20137;-76
2022/11/14 10:51:00;;;;;;;;;;;;;;;7.23;100.00;101081.13;5054064;28;20108;-73
2022/11/14 10:53:33;;;;;;;4.30;2.27;;;;;;;7.29;100.00;101080.13;5054467;28;20266;-73
2022/11/14 10:56:00;;;;;;;2.50;2.00;;;;;;;7.30;100.00;101073.22;5053380;28;20021;-74
2022/11/14 10:58:25;;;;;;;0.43;0.43;;;;;;;7.42;100.00;101072.41;5053742;28;20104;-72
2022/11/14 11:00:50;;;;;;;2.75;2.60;;;;;;;7.49;100.00;101071.41;5052655;28;20435;-72
2022/11/14 11:03:16;;;;;;;4.28;3.03;;;;;;;7.57;100.00;101067.09;5052474;28;20017;-73
2022/11/14 11:05:50;;;;;;;2.08;1.98;;;;;;;7.59;100.00;101058.91;5052925;28;20453;-73
2022/11/14 11:11:28;;;;;;;4.78;4.40;;;;;;;7.68;100.00;101056.19;5052847;28;20440;-72
2022/11/14 11:13:54;;;;;;;20.27;5.43;;;;;;;7.71;100.00;101054.50;5054423;28;20374;-68
2022/11/14 11:16:22;;;;;;;3.63;2.60;;;;;;;7.72;100.00;101059.69;5054586;28;20029;-70
2022/11/14 11:18:47;;;;;;;4.82;3.72;;;;;;;7.66;100.00;101029.47;5055417;28;20025;-68
2022/11/14 11:21:15;;;;;;;7.97;4.60;;;;;;;7.62;100.00;101023.09;5055113;28;20032;-69
2022/11/14 11:23:55;;;;;;;1.60;1.50;;;;;;;7.74;100.00;101057.22;5054251;28;20112;-70
2022/11/14 11:26:27;;;;;;;1.83;1.77;;;;;;;7.72;100.00;101027.66;5043045;28;20009;-69
2022/11/14 11:29:07;;;;;;;1.45;1.17;;;;;;;7.93;100.00;101044.78;5028186;28;20108;-69